createdAt,value
2022-09-13T00:00:27.136Z,13.78
2022-09-13T00:01:27.511Z,13.78
2022-09-13T00:02:27.786Z,13.77
2022-09-13T00:03:27.994Z,13.77
2022-09-13T00:04:28.346Z,13.75
2022-09-13T00:05:28.672Z,13.75
2022-09-13T00:06:29.016Z,13.75
2022-09-13T00:07:29.336Z,13.71
2022-09-13T00:08:29.666Z,13.71
2022-09-13T00:09:30.015Z,13.71
2022-09-13T00:10:30.347Z,13.70
2022-09-13T00:11:30.676Z,13.70
2022-09-13T00:12:31.001Z,13.71
2022-09-13T00:13:31.355Z,13.73
2022-09-13T00:14:31.566Z,13.70
2022-09-13T00:15:31.878Z,13.70
2022-09-13T00:16:32.356Z,13.67
2022-09-13T00:17:32.545Z,13.66
2022-09-13T00:18:33.034Z,13.66
2022-09-13T00:19:33.229Z,13.67
2022-09-13T00:20:33.439Z,13.67
2022-09-13T00:21:33.758Z,13.67
2022-09-13T00:22:34.089Z,13.66
2022-09-13T00:23:34.429Z,13.64
2022-09-13T00:24:34.758Z,13.64
2022-09-13T00:25:35.092Z,13.62
2022-09-13T00:26:35.422Z,13.62
2022-09-13T00:27:35.731Z,13.63
2022-09-13T00:28:36.106Z,13.62
2022-09-13T00:29:36.320Z,13.62
2022-09-13T00:30:36.632Z,13.63
2022-09-13T00:31:37.069Z,13.62
2022-09-13T00:32:37.254Z,13.62
2022-09-13T00:33:37.593Z,13.62
2022-09-13T00:34:37.940Z,13.62
2022-09-13T00:35:38.193Z,13.60
2022-09-13T00:36:38.517Z,13.57
2022-09-13T00:37:38.862Z,13.57
2022-09-13T00:38:39.193Z,13.57
2022-09-13T00:39:39.570Z,13.59
2022-09-13T00:40:39.752Z,13.55
2022-09-13T00:41:40.075Z,13.59
2022-09-13T00:42:40.454Z,13.59
2022-09-13T00:43:40.726Z,13.60
2022-09-13T00:44:41.070Z,13.59
2022-09-13T00:45:41.428Z,13.60
2022-09-13T00:46:41.653Z,13.60
2022-09-13T00:47:41.967Z,13.64
2022-09-13T00:48:42.303Z,13.66
2022-09-13T00:49:42.657Z,13.66
2022-09-13T00:50:42.872Z,13.67
2022-09-13T00:51:43.218Z,13.67
2022-09-13T00:52:46.698Z,13.67
2022-09-13T00:53:43.896Z,13.69
2022-09-13T00:54:44.248Z,13.66
2022-09-13T00:55:44.467Z,13.64
2022-09-13T00:56:44.836Z,13.64
2022-09-13T00:57:45.050Z,13.63
2022-09-13T00:58:45.429Z,13.64
2022-09-13T00:59:45.683Z,13.63
2022-09-13T01:00:45.961Z,13.63
2022-09-13T01:01:46.237Z,13.63
2022-09-13T01:02:46.460Z,13.63
2022-09-13T01:03:46.801Z,13.64
2022-09-13T01:04:47.132Z,13.64
2022-09-13T01:05:47.471Z,13.66
2022-09-13T01:06:47.784Z,13.67
2022-09-13T01:07:48.129Z,13.66
2022-09-13T01:08:48.449Z,13.67
2022-09-13T01:09:48.774Z,13.66
2022-09-13T01:10:49.102Z,13.66
2022-09-13T01:11:49.435Z,13.64
2022-09-13T01:12:49.910Z,13.63
2022-09-13T01:13:50.129Z,13.63
2022-09-13T01:14:50.326Z,13.62
2022-09-13T01:15:50.673Z,13.63
2022-09-13T01:16:51.036Z,13.57
2022-09-13T01:17:51.349Z,13.57
2022-09-13T01:18:51.688Z,13.57
2022-09-13T01:19:52.024Z,13.54
2022-09-13T01:20:52.354Z,13.52
2022-09-13T01:21:52.686Z,13.52
2022-09-13T01:22:53.006Z,13.52
2022-09-13T01:23:53.336Z,13.51
2022-09-13T01:24:53.668Z,13.48
2022-09-13T01:25:53.986Z,13.48
2022-09-13T01:26:54.338Z,13.46
2022-09-13T01:27:54.658Z,13.46
2022-09-13T01:28:54.991Z,13.45
2022-09-13T01:29:55.329Z,13.46
2022-09-13T01:30:55.668Z,13.44
2022-09-13T01:31:56.017Z,13.42
2022-09-13T01:32:56.343Z,13.42
2022-09-13T01:33:56.659Z,13.42
2022-09-13T01:34:57.010Z,13.41
2022-09-13T01:35:57.235Z,13.42
2022-09-13T01:36:57.578Z,13.42
2022-09-13T01:37:57.909Z,13.42
2022-09-13T01:38:58.251Z,13.42
2022-09-13T01:39:58.646Z,13.41
2022-09-13T01:41:01.833Z,13.41
2022-09-13T01:42:00.161Z,13.39
2022-09-13T01:42:59.431Z,13.41
2022-09-13T01:43:59.741Z,13.41
2022-09-13T01:44:59.960Z,13.39
2022-09-13T01:46:00.288Z,13.39
2022-09-13T01:47:00.736Z,13.39
2022-09-13T01:48:00.893Z,13.39
2022-09-13T01:49:01.325Z,13.41
2022-09-13T01:50:01.558Z,13.39
2022-09-13T01:51:01.892Z,13.39
2022-09-13T01:52:02.145Z,13.39
2022-09-13T01:53:02.482Z,13.36
2022-09-13T01:54:02.828Z,13.36
2022-09-13T01:55:03.068Z,13.33
2022-09-13T01:56:03.276Z,13.32
2022-09-13T01:57:03.607Z,13.32
2022-09-13T01:58:03.936Z,13.32
2022-09-13T01:59:04.278Z,13.30
2022-09-13T02:00:04.619Z,13.29
2022-09-13T02:01:04.973Z,13.29
2022-09-13T02:02:05.265Z,13.30
2022-09-13T02:03:05.507Z,13.28
2022-09-13T02:04:05.837Z,13.26
2022-09-13T02:05:06.204Z,13.28
2022-09-13T02:06:06.410Z,13.25
2022-09-13T02:07:06.737Z,13.25
2022-09-13T02:08:07.058Z,13.23
2022-09-13T02:09:07.381Z,13.26
2022-09-13T02:10:07.709Z,13.25
2022-09-13T02:11:08.040Z,13.22
2022-09-13T02:12:08.360Z,13.20
2022-09-13T02:13:08.697Z,13.19
2022-09-13T02:14:09.009Z,13.17
2022-09-13T02:15:09.340Z,13.17
2022-09-13T02:16:09.708Z,13.14
2022-09-13T02:17:09.921Z,13.14
2022-09-13T02:18:10.251Z,13.12
2022-09-13T02:19:10.602Z,13.12
2022-09-13T02:20:10.939Z,13.11
2022-09-13T02:21:11.265Z,13.08
2022-09-13T02:22:11.586Z,13.08
2022-09-13T02:23:11.902Z,13.10
2022-09-13T02:24:12.237Z,13.08
2022-09-13T02:25:12.566Z,13.07
2022-09-13T02:26:12.889Z,13.07
2022-09-13T02:27:13.218Z,13.07
2022-09-13T02:28:13.536Z,13.07
2022-09-13T02:29:13.873Z,13.08
2022-09-13T02:30:14.205Z,13.08
2022-09-13T02:31:14.572Z,13.11
2022-09-13T02:32:14.865Z,13.12
2022-09-13T02:33:15.209Z,13.15
2022-09-13T02:34:15.538Z,13.12
2022-09-13T02:35:15.865Z,13.15
2022-09-13T02:36:16.186Z,13.17
2022-09-13T02:37:16.544Z,13.19
2022-09-13T02:38:16.758Z,13.19
2022-09-13T02:39:17.461Z,13.20
2022-09-13T02:40:17.373Z,13.17
2022-09-13T02:41:17.568Z,13.20
2022-09-13T02:42:17.890Z,13.20
2022-09-13T02:43:18.220Z,13.20
2022-09-13T02:44:18.551Z,13.23
2022-09-13T02:45:18.880Z,13.23
2022-09-13T02:46:19.221Z,13.22
2022-09-13T02:47:19.548Z,13.22
2022-09-13T02:48:19.974Z,13.20
2022-09-13T02:49:20.191Z,13.22
2022-09-13T02:50:20.515Z,13.22
2022-09-13T02:51:20.842Z,13.20
2022-09-13T02:52:21.184Z,13.20
2022-09-13T02:53:21.402Z,13.19
2022-09-13T02:54:21.741Z,13.19
2022-09-13T02:55:22.089Z,13.17
2022-09-13T02:56:22.426Z,13.15
2022-09-13T02:57:22.653Z,13.19
2022-09-13T02:58:27.007Z,13.17
2022-09-13T02:59:23.236Z,13.15
2022-09-13T03:00:23.572Z,13.17
2022-09-13T03:01:23.928Z,13.17
2022-09-13T03:02:24.177Z,13.12
2022-09-13T03:03:24.379Z,13.14
2022-09-13T03:04:24.705Z,13.17
2022-09-13T03:05:25.047Z,13.17
2022-09-13T03:06:25.386Z,13.17
2022-09-13T03:07:25.713Z,13.15
2022-09-13T03:08:26.048Z,13.20
2022-09-13T03:09:26.401Z,13.19
2022-09-13T03:10:26.710Z,13.19
2022-09-13T03:11:27.040Z,13.20
2022-09-13T03:12:27.370Z,13.20
2022-09-13T03:13:27.696Z,13.20
2022-09-13T03:14:28.047Z,13.20
2022-09-13T03:15:28.237Z,13.22
2022-09-13T03:16:28.617Z,13.22
2022-09-13T03:17:28.828Z,13.23
2022-09-13T03:18:29.156Z,13.25
2022-09-13T03:19:29.517Z,13.25
2022-09-13T03:20:30.709Z,13.28
2022-09-13T03:21:29.990Z,13.29
2022-09-13T03:22:30.373Z,13.30
2022-09-13T03:23:30.589Z,13.30
2022-09-13T03:24:31.021Z,13.33
2022-09-13T03:25:31.249Z,13.33
2022-09-13T03:26:31.691Z,13.36
2022-09-13T03:27:31.911Z,13.36
2022-09-13T03:28:33.092Z,13.39
2022-09-13T03:29:32.494Z,13.42
2022-09-13T03:30:32.883Z,13.44
2022-09-13T03:31:33.176Z,13.46
2022-09-13T03:33:33.764Z,13.48
2022-09-13T03:34:34.085Z,13.49
2022-09-13T03:35:34.413Z,13.51
2022-09-13T03:36:34.732Z,13.54
2022-09-13T03:37:35.057Z,13.52
2022-09-13T03:38:35.476Z,13.55
2022-09-13T03:39:35.689Z,13.55
2022-09-13T03:40:36.004Z,13.55
2022-09-13T03:41:36.334Z,13.57
2022-09-13T03:42:36.645Z,13.60
2022-09-13T03:43:36.976Z,13.62
2022-09-13T03:44:37.314Z,13.62
2022-09-13T03:45:37.662Z,13.64
2022-09-13T03:46:37.857Z,13.66
2022-09-13T03:47:38.183Z,13.66
2022-09-13T03:48:38.518Z,13.66
2022-09-13T03:49:38.839Z,13.67
2022-09-13T03:50:39.240Z,13.67
2022-09-13T03:51:39.431Z,13.69
2022-09-13T03:52:42.233Z,13.69
2022-09-13T03:53:41.040Z,13.71
2022-09-13T03:54:40.314Z,13.73
2022-09-13T03:55:40.637Z,13.73
2022-09-13T03:56:40.970Z,13.73
2022-09-13T03:57:41.284Z,13.75
2022-09-13T03:58:41.601Z,13.77
2022-09-13T03:59:41.934Z,13.77
2022-09-13T04:00:42.265Z,13.77
2022-09-13T04:01:42.685Z,13.77
2022-09-13T04:02:42.871Z,13.77
2022-09-13T04:03:43.189Z,13.75
2022-09-13T04:04:43.535Z,13.78
2022-09-13T04:05:43.854Z,13.78
2022-09-13T04:06:44.194Z,13.79
2022-09-13T04:07:44.509Z,13.79
2022-09-13T04:08:44.833Z,13.81
2022-09-13T04:09:45.154Z,13.84
2022-09-13T04:10:45.505Z,13.84
2022-09-13T04:11:45.703Z,13.84
2022-09-13T04:12:46.030Z,13.84
2022-09-13T04:13:46.355Z,13.85
2022-09-13T04:14:46.697Z,13.87
2022-09-13T04:15:47.009Z,13.85
2022-09-13T04:16:47.390Z,13.85
2022-09-13T04:17:47.619Z,13.87
2022-09-13T04:18:47.947Z,13.87
2022-09-13T04:19:48.349Z,13.88
2022-09-13T04:20:48.545Z,13.87
2022-09-13T04:21:48.868Z,13.88
2022-09-13T04:22:49.199Z,13.87
2022-09-13T04:23:49.532Z,13.88
2022-09-13T04:24:49.890Z,13.88
2022-09-13T04:25:50.208Z,13.89
2022-09-13T04:26:50.540Z,13.91
2022-09-13T04:27:50.871Z,13.91
2022-09-13T04:28:51.209Z,13.89
2022-09-13T04:29:51.551Z,13.91
2022-09-13T04:30:51.881Z,13.91
2022-09-13T04:31:52.259Z,13.91
2022-09-13T04:32:52.552Z,13.92
2022-09-13T04:33:52.762Z,13.92
2022-09-13T04:34:53.121Z,13.92
2022-09-13T04:35:53.335Z,13.95
2022-09-13T04:36:53.663Z,13.95
2022-09-13T04:37:54.004Z,13.96
2022-09-13T04:38:54.343Z,13.95
2022-09-13T04:39:54.732Z,13.95
2022-09-13T04:40:54.952Z,13.92
2022-09-13T04:41:55.289Z,13.95
2022-09-13T04:42:55.630Z,13.95
2022-09-13T04:43:55.956Z,13.92
2022-09-13T04:44:56.322Z,13.92
2022-09-13T04:45:56.588Z,13.95
2022-09-13T04:46:56.835Z,13.92
2022-09-13T04:47:57.059Z,13.92
2022-09-13T04:48:57.309Z,13.95
2022-09-13T04:49:57.555Z,13.95
2022-09-13T04:50:57.795Z,13.96
2022-09-13T04:51:58.026Z,13.96
2022-09-13T04:52:58.261Z,13.96
2022-09-13T04:53:58.538Z,13.97
2022-09-13T04:54:58.779Z,13.96
2022-09-13T04:55:59.968Z,13.97
2022-09-13T04:56:59.279Z,13.97
2022-09-13T04:57:59.499Z,13.99
2022-09-13T04:58:59.860Z,14.02
2022-09-13T05:00:00.114Z,14.00
2022-09-13T05:01:00.398Z,14.02
2022-09-13T05:02:00.680Z,14.02
2022-09-13T05:03:00.893Z,14.03
2022-09-13T05:04:01.120Z,14.03
2022-09-13T05:05:01.365Z,14.04
2022-09-13T05:06:01.582Z,14.04
2022-09-13T05:07:01.941Z,14.06
2022-09-13T05:08:02.171Z,14.04
2022-09-13T05:09:02.593Z,14.06
2022-09-13T05:10:02.856Z,14.06
2022-09-13T05:11:03.092Z,14.04
2022-09-13T05:12:03.363Z,14.06
2022-09-13T05:13:03.586Z,14.06
2022-09-13T05:14:03.969Z,14.07
2022-09-13T05:15:04.204Z,14.09
2022-09-13T05:16:04.558Z,14.07
2022-09-13T05:17:04.774Z,14.12
2022-09-13T05:18:04.996Z,14.12
2022-09-13T05:19:05.362Z,14.14
2022-09-13T05:20:05.599Z,14.14
2022-09-13T05:21:05.866Z,14.15
2022-09-13T05:22:06.138Z,14.17
2022-09-13T05:23:06.397Z,14.18
2022-09-13T05:24:06.663Z,14.21
2022-09-13T05:25:07.197Z,14.22
2022-09-13T05:26:07.129Z,14.21
2022-09-13T05:27:07.368Z,14.24
2022-09-13T05:28:07.601Z,14.25
2022-09-13T05:29:08.072Z,14.27
2022-09-13T05:30:08.160Z,14.28
2022-09-13T05:31:08.470Z,14.27
2022-09-13T05:32:08.777Z,14.28
2022-09-13T05:33:09.060Z,14.28
2022-09-13T05:34:09.360Z,14.28
2022-09-13T05:35:09.624Z,14.28
2022-09-13T05:36:09.881Z,14.27
2022-09-13T05:37:10.134Z,14.28
2022-09-13T05:38:10.372Z,14.27
2022-09-13T05:39:29.632Z,14.25
2022-09-13T05:40:12.761Z,14.24
2022-09-13T05:41:11.210Z,14.24
2022-09-13T05:42:11.444Z,14.25
2022-09-13T05:43:11.675Z,14.25
2022-09-13T05:44:13.537Z,14.25
2022-09-13T05:45:12.215Z,14.24
2022-09-13T05:46:12.611Z,14.24
2022-09-13T05:47:12.845Z,14.22
2022-09-13T05:48:13.191Z,14.22
2022-09-13T05:49:13.427Z,14.24
2022-09-13T05:50:26.560Z,14.24
2022-09-13T05:51:14.957Z,14.25
2022-09-13T05:52:14.237Z,14.24
2022-09-13T05:53:14.585Z,14.24
2022-09-13T05:54:15.188Z,14.22
2022-09-13T05:55:15.262Z,14.22
2022-09-13T05:56:16.847Z,14.22
2022-09-13T05:57:15.837Z,14.24
2022-09-13T05:58:16.059Z,14.24
2022-09-13T05:59:16.435Z,14.22
2022-09-13T06:00:16.667Z,14.21
2022-09-13T06:01:16.939Z,14.22
2022-09-13T06:02:17.295Z,14.22
2022-09-13T06:03:17.707Z,14.21
2022-09-13T06:04:17.812Z,14.22
2022-09-13T06:05:18.033Z,14.22
2022-09-13T06:06:18.264Z,14.24
2022-09-13T06:07:18.493Z,14.24
2022-09-13T06:08:18.721Z,14.24
2022-09-13T06:09:18.964Z,14.24
2022-09-13T06:10:19.209Z,14.27
2022-09-13T06:11:19.442Z,14.28
2022-09-13T06:12:19.723Z,14.29
2022-09-13T06:13:20.003Z,14.32
2022-09-13T06:14:20.253Z,14.35
2022-09-13T06:15:20.515Z,14.36
2022-09-13T06:16:20.858Z,14.37
2022-09-13T06:17:21.056Z,14.39
2022-09-13T06:18:21.296Z,14.39
2022-09-13T06:19:21.544Z,14.40
2022-09-13T06:20:21.955Z,14.42
2022-09-13T06:21:24.766Z,14.40
2022-09-13T06:22:23.404Z,14.40
2022-09-13T06:23:22.707Z,14.43
2022-09-13T06:24:22.945Z,14.42
2022-09-13T06:25:23.166Z,14.42
2022-09-13T06:26:23.398Z,14.43
2022-09-13T06:27:23.646Z,14.43
2022-09-13T06:28:23.876Z,14.47
2022-09-13T06:29:24.138Z,14.47
2022-09-13T06:30:24.421Z,14.47
2022-09-13T06:31:24.759Z,14.51
2022-09-13T06:32:24.920Z,14.54
2022-09-13T06:33:25.149Z,14.52
2022-09-13T06:34:30.516Z,14.54
2022-09-13T06:35:26.709Z,14.54
2022-09-13T06:36:26.001Z,14.55
2022-09-13T06:37:26.231Z,14.55
2022-09-13T06:38:26.460Z,14.57
2022-09-13T06:39:26.727Z,14.57
2022-09-13T06:40:26.996Z,14.60
2022-09-13T06:41:27.319Z,14.58
2022-09-13T06:42:27.465Z,14.60
2022-09-13T06:43:27.793Z,14.60
2022-09-13T06:44:28.152Z,14.62
2022-09-13T06:45:28.394Z,14.64
2022-09-13T06:46:28.696Z,14.61
2022-09-13T06:47:28.961Z,14.62
2022-09-13T06:48:29.184Z,14.62
2022-09-13T06:49:29.427Z,14.62
2022-09-13T06:50:29.654Z,14.64
2022-09-13T06:51:29.904Z,14.64
2022-09-13T06:52:30.185Z,14.64
2022-09-13T06:53:30.425Z,14.65
2022-09-13T06:54:30.679Z,14.68
2022-09-13T06:55:30.910Z,14.70
2022-09-13T06:56:31.146Z,14.72
2022-09-13T06:57:32.337Z,14.73
2022-09-13T06:58:31.647Z,14.75
2022-09-13T06:59:31.920Z,14.77
2022-09-13T07:00:32.191Z,14.77
2022-09-13T07:01:32.611Z,14.78
2022-09-13T07:02:32.715Z,14.83
2022-09-13T07:03:32.988Z,14.86
2022-09-13T07:04:33.258Z,14.89
2022-09-13T07:05:33.499Z,14.94
2022-09-13T07:06:33.819Z,14.95
2022-09-13T07:07:34.080Z,14.99
2022-09-13T07:08:34.403Z,15.06
2022-09-13T07:09:34.689Z,15.09
2022-09-13T07:10:34.921Z,15.11
2022-09-13T07:11:35.175Z,15.14
2022-09-13T07:12:35.422Z,15.11
2022-09-13T07:13:35.666Z,15.13
2022-09-13T07:14:35.915Z,15.14
2022-09-13T07:15:36.198Z,15.14
2022-09-13T07:16:36.433Z,15.13
2022-09-13T07:17:36.692Z,15.13
2022-09-13T07:18:36.962Z,15.14
2022-09-13T07:19:37.213Z,15.14
2022-09-13T07:20:37.453Z,15.17
2022-09-13T07:21:37.695Z,15.16
2022-09-13T07:22:37.925Z,15.17
2022-09-13T07:23:38.218Z,15.17
2022-09-13T07:24:38.464Z,15.20
2022-09-13T07:25:38.772Z,15.20
2022-09-13T07:26:38.925Z,15.21
2022-09-13T07:27:39.177Z,15.25
2022-09-13T07:28:39.485Z,15.28
2022-09-13T07:29:39.741Z,15.31
2022-09-13T07:30:40.000Z,15.29
2022-09-13T07:31:40.298Z,15.31
2022-09-13T07:32:40.575Z,15.32
2022-09-13T07:33:40.827Z,15.32
2022-09-13T07:34:41.111Z,15.34
2022-09-13T07:35:41.350Z,15.32
2022-09-13T07:36:41.600Z,15.31
2022-09-13T07:37:41.853Z,15.32
2022-09-13T07:38:42.144Z,15.31
2022-09-13T07:39:42.447Z,15.31
2022-09-13T07:40:42.702Z,15.29
2022-09-13T07:41:42.961Z,15.29
2022-09-13T07:42:43.242Z,15.32
2022-09-13T07:43:43.493Z,15.34
2022-09-13T07:44:43.780Z,15.31
2022-09-13T07:45:44.044Z,15.32
2022-09-13T07:46:44.295Z,15.31
2022-09-13T07:47:45.364Z,15.32
2022-09-13T07:48:44.849Z,15.32
2022-09-13T07:49:45.133Z,15.32
2022-09-13T07:50:45.365Z,15.34
2022-09-13T07:51:45.627Z,15.34
2022-09-13T07:52:45.864Z,15.35
2022-09-13T07:53:46.138Z,15.36
2022-09-13T07:54:46.402Z,15.38
2022-09-13T07:55:46.794Z,15.38
2022-09-13T07:56:46.898Z,15.38
2022-09-13T07:57:47.212Z,15.38
2022-09-13T07:58:47.379Z,15.38
2022-09-13T07:59:47.637Z,15.39
2022-09-13T08:00:47.879Z,15.41
2022-09-13T08:01:48.243Z,15.41
2022-09-13T08:02:48.463Z,15.41
2022-09-13T08:03:48.819Z,15.43
2022-09-13T08:04:48.954Z,15.44
2022-09-13T08:05:49.259Z,15.46
2022-09-13T08:06:49.516Z,15.46
2022-09-13T08:07:49.773Z,15.47
2022-09-13T08:08:50.050Z,15.49
2022-09-13T08:09:50.290Z,15.50
2022-09-13T08:10:51.513Z,15.50
2022-09-13T08:11:50.825Z,15.51
2022-09-13T08:12:51.209Z,15.51
2022-09-13T08:13:51.301Z,15.50
2022-09-13T08:14:51.541Z,15.53
2022-09-13T08:15:51.798Z,15.54
2022-09-13T08:16:52.072Z,15.54
2022-09-13T08:17:52.323Z,15.56
2022-09-13T08:18:52.577Z,15.59
2022-09-13T08:19:52.824Z,15.59
2022-09-13T08:20:53.063Z,15.62
2022-09-13T08:21:53.305Z,15.65
2022-09-13T08:22:53.668Z,15.68
2022-09-13T08:23:53.806Z,15.71
2022-09-13T08:24:54.053Z,15.75
2022-09-13T08:25:54.297Z,15.80
2022-09-13T08:26:54.546Z,15.83
2022-09-13T08:27:54.846Z,15.86
2022-09-13T08:28:55.106Z,15.87
2022-09-13T08:29:55.351Z,15.94
2022-09-13T08:30:55.604Z,15.97
2022-09-13T08:31:55.839Z,16.02
2022-09-13T08:32:56.090Z,16.05
2022-09-13T08:33:56.340Z,16.08
2022-09-13T08:34:56.605Z,16.14
2022-09-13T08:35:56.839Z,16.15
2022-09-13T08:36:57.091Z,16.20
2022-09-13T08:37:57.338Z,16.21
2022-09-13T08:38:57.604Z,16.27
2022-09-13T08:39:57.904Z,16.31
2022-09-13T08:40:58.151Z,16.42
2022-09-13T08:41:58.394Z,16.48
2022-09-13T08:42:58.634Z,16.56
2022-09-13T08:43:58.886Z,16.60
2022-09-13T08:44:59.142Z,16.63
2022-09-13T08:45:59.426Z,16.68
2022-09-13T08:46:59.647Z,16.75
2022-09-13T08:47:59.886Z,16.76
2022-09-13T08:49:00.144Z,16.79
2022-09-13T08:50:00.409Z,16.85
2022-09-13T08:51:00.666Z,16.89
2022-09-13T08:52:00.904Z,16.94
2022-09-13T08:53:01.146Z,16.94
2022-09-13T08:54:01.394Z,16.97
2022-09-13T08:55:01.648Z,16.96
2022-09-13T08:56:01.891Z,16.96
2022-09-13T08:57:02.140Z,16.98
2022-09-13T08:58:02.388Z,16.97
2022-09-13T08:59:02.657Z,16.97
2022-09-13T09:00:02.908Z,16.96
2022-09-13T09:01:03.181Z,16.93
2022-09-13T09:02:03.420Z,16.86
2022-09-13T09:03:03.672Z,16.82
2022-09-13T09:04:03.923Z,16.79
2022-09-13T09:05:04.161Z,16.78
2022-09-13T09:06:04.414Z,16.78
2022-09-13T09:07:04.672Z,16.76
2022-09-13T09:08:04.928Z,16.75
2022-09-13T09:09:05.192Z,16.73
2022-09-13T09:10:05.455Z,16.76
2022-09-13T09:11:05.700Z,16.79
2022-09-13T09:12:05.944Z,16.82
2022-09-13T09:13:06.185Z,16.85
2022-09-13T09:14:06.456Z,16.93
2022-09-13T09:15:06.705Z,16.97
2022-09-13T09:16:06.986Z,17.03
2022-09-13T09:17:07.246Z,17.08
2022-09-13T09:18:07.488Z,17.12
2022-09-13T09:19:07.768Z,17.12
2022-09-13T09:20:08.009Z,17.14
2022-09-13T09:21:08.285Z,17.12
2022-09-13T09:22:08.538Z,17.08
2022-09-13T09:23:08.802Z,17.08
2022-09-13T09:24:09.058Z,17.06
2022-09-13T09:25:09.310Z,17.03
2022-09-13T09:26:09.592Z,17.00
2022-09-13T09:27:09.857Z,16.97
2022-09-13T09:28:10.109Z,16.97
2022-09-13T09:29:10.362Z,16.98
2022-09-13T09:30:10.621Z,17.00
2022-09-13T09:31:10.923Z,17.04
2022-09-13T09:32:11.172Z,17.07
2022-09-13T09:33:11.461Z,17.11
2022-09-13T09:34:11.757Z,17.14
2022-09-13T09:35:12.017Z,17.19
2022-09-13T09:36:12.281Z,17.25
2022-09-13T09:37:12.584Z,17.33
2022-09-13T09:38:12.876Z,17.43
2022-09-13T09:39:13.164Z,17.51
2022-09-13T09:40:13.465Z,17.59
2022-09-13T09:41:13.757Z,17.68
2022-09-13T09:42:14.039Z,17.75
2022-09-13T09:43:14.300Z,17.81
2022-09-13T09:44:14.547Z,17.86
2022-09-13T09:45:14.832Z,17.87
2022-09-13T09:46:15.105Z,17.89
2022-09-13T09:47:15.379Z,17.92
2022-09-13T09:48:15.649Z,17.99
2022-09-13T09:49:15.927Z,18.05
2022-09-13T09:50:16.341Z,18.05
2022-09-13T09:51:16.624Z,18.00
2022-09-13T09:52:16.689Z,18.03
2022-09-13T09:53:17.019Z,18.05
2022-09-13T09:54:17.153Z,18.07
2022-09-13T09:55:17.414Z,18.08
2022-09-13T09:56:17.681Z,18.11
2022-09-13T09:57:18.003Z,18.14
2022-09-13T09:58:18.273Z,18.18
2022-09-13T09:59:18.700Z,18.23
2022-09-13T10:00:18.834Z,18.27
2022-09-13T10:01:19.120Z,18.32
2022-09-13T10:02:19.400Z,18.35
2022-09-13T10:03:19.646Z,18.37
2022-09-13T10:04:19.899Z,18.39
2022-09-13T10:05:20.156Z,18.39
2022-09-13T10:06:20.404Z,18.36
2022-09-13T10:07:20.667Z,18.30
2022-09-13T10:08:20.956Z,18.29
2022-09-13T10:09:21.197Z,18.27
2022-09-13T10:10:21.438Z,18.26
2022-09-13T10:11:21.709Z,18.27
2022-09-13T10:12:21.969Z,18.26
2022-09-13T10:13:22.259Z,18.26
2022-09-13T10:14:22.491Z,18.29
2022-09-13T10:15:22.742Z,18.35
2022-09-13T10:16:23.076Z,18.35
2022-09-13T10:17:23.317Z,18.36
2022-09-13T10:19:24.903Z,18.37
2022-09-13T10:20:24.213Z,18.41
2022-09-13T10:21:24.526Z,18.45
2022-09-13T10:22:24.741Z,18.50
2022-09-13T10:23:25.043Z,18.54
2022-09-13T10:24:25.313Z,18.50
2022-09-13T10:25:25.565Z,18.51
2022-09-13T10:26:25.830Z,18.52
2022-09-13T10:27:26.124Z,18.55
2022-09-13T10:28:26.415Z,18.60
2022-09-13T10:29:26.684Z,18.60
2022-09-13T10:30:27.000Z,18.62
2022-09-13T10:31:27.265Z,18.63
2022-09-13T10:32:27.527Z,18.69
2022-09-13T10:33:27.809Z,18.73
2022-09-13T10:34:28.088Z,18.78
2022-09-13T10:35:28.370Z,18.80
2022-09-13T10:36:51.575Z,18.87
2022-09-13T10:37:29.881Z,18.95
2022-09-13T10:38:29.228Z,18.99
2022-09-13T10:39:29.500Z,19.07
2022-09-13T10:40:29.770Z,19.11
2022-09-13T10:41:30.044Z,19.10
2022-09-13T10:42:30.291Z,19.04
2022-09-13T10:43:30.573Z,19.00
2022-09-13T10:44:30.833Z,18.99
2022-09-13T10:45:31.093Z,18.99
2022-09-13T10:46:31.355Z,18.99
2022-09-13T10:47:31.631Z,18.99
2022-09-13T10:48:31.904Z,18.99
2022-09-13T10:49:32.183Z,19.02
2022-09-13T10:50:32.432Z,19.02
2022-09-13T10:51:32.715Z,19.06
2022-09-13T10:52:32.966Z,19.08
2022-09-13T10:53:33.247Z,19.13
2022-09-13T10:54:33.521Z,19.19
2022-09-13T10:55:33.786Z,19.19
2022-09-13T10:56:34.067Z,19.14
2022-09-13T10:57:34.335Z,19.14
2022-09-13T10:58:34.619Z,19.16
2022-09-13T10:59:34.887Z,19.18
2022-09-13T11:00:35.149Z,19.21
2022-09-13T11:01:40.119Z,19.23
2022-09-13T11:02:36.809Z,19.22
2022-09-13T11:03:36.014Z,19.22
2022-09-13T11:04:36.294Z,19.25
2022-09-13T11:05:36.559Z,19.26
2022-09-13T11:06:36.802Z,19.26
2022-09-13T11:07:37.101Z,19.29
2022-09-13T11:08:37.373Z,19.33
2022-09-13T11:09:37.637Z,19.36
2022-09-13T11:10:37.884Z,19.37
2022-09-13T11:11:38.160Z,19.39
2022-09-13T11:12:38.433Z,19.44
2022-09-13T11:13:40.871Z,19.48
2022-09-13T11:14:39.945Z,19.54
2022-09-13T11:15:39.267Z,19.58
2022-09-13T11:16:39.552Z,19.61
2022-09-13T11:17:39.797Z,19.68
2022-09-13T11:18:40.066Z,19.76
2022-09-13T11:19:40.398Z,19.78
2022-09-13T11:20:40.677Z,19.84
2022-09-13T11:21:40.927Z,19.88
2022-09-13T11:22:41.207Z,19.88
2022-09-13T11:23:41.472Z,19.88
2022-09-13T11:24:41.730Z,19.91
2022-09-13T11:25:42.001Z,19.94
2022-09-13T11:26:42.241Z,19.94
2022-09-13T11:27:42.531Z,19.96
2022-09-13T11:28:42.794Z,19.95
2022-09-13T11:29:43.062Z,19.94
2022-09-13T11:30:43.328Z,19.88
2022-09-13T11:31:43.663Z,19.91
2022-09-13T11:32:43.911Z,19.92
2022-09-13T11:33:44.213Z,19.95
2022-09-13T11:34:44.472Z,19.88
2022-09-13T11:35:44.749Z,19.87
2022-09-13T11:36:45.008Z,19.92
2022-09-13T11:37:45.294Z,19.96
2022-09-13T11:38:45.567Z,19.98
2022-09-13T11:39:45.847Z,19.98
2022-09-13T11:40:46.108Z,19.96
2022-09-13T11:41:46.358Z,19.96
2022-09-13T11:42:46.642Z,19.99
2022-09-13T11:43:46.937Z,20.01
2022-09-13T11:44:47.229Z,20.02
2022-09-13T11:45:47.532Z,20.03
2022-09-13T11:46:47.770Z,19.98
2022-09-13T11:47:48.060Z,19.91
2022-09-13T11:48:48.321Z,19.84
2022-09-13T11:49:48.591Z,19.80
2022-09-13T11:50:48.852Z,19.73
2022-09-13T11:51:49.126Z,19.66
2022-09-13T11:52:49.393Z,19.62
2022-09-13T11:53:49.718Z,19.55
2022-09-13T11:54:49.964Z,19.47
2022-09-13T11:55:50.234Z,19.41
2022-09-13T11:56:50.482Z,19.37
2022-09-13T11:57:50.755Z,19.33
2022-09-13T11:58:51.034Z,19.28
2022-09-13T11:59:51.277Z,19.25
2022-09-13T12:00:51.554Z,19.22
2022-09-13T12:01:51.929Z,19.21
2022-09-13T12:02:52.251Z,19.21
2022-09-13T12:03:52.395Z,19.21
2022-09-13T12:05:18.130Z,19.21
2022-09-13T12:05:53.904Z,19.18
2022-09-13T12:06:53.233Z,19.14
2022-09-13T12:07:53.518Z,19.08
2022-09-13T12:08:53.759Z,19.06
2022-09-13T12:09:54.077Z,19.02
2022-09-13T12:10:54.347Z,19.02
2022-09-13T12:11:54.590Z,18.99
2022-09-13T12:12:54.841Z,19.00
2022-09-13T12:13:55.102Z,19.02
2022-09-13T12:14:55.363Z,19.00
2022-09-13T12:15:55.612Z,19.02
2022-09-13T12:16:55.877Z,19.02
2022-09-13T12:17:56.882Z,19.07
2022-09-13T12:18:56.425Z,19.13
2022-09-13T12:19:56.684Z,19.18
2022-09-13T12:20:56.935Z,19.23
2022-09-13T12:21:57.179Z,19.28
2022-09-13T12:22:57.432Z,19.36
2022-09-13T12:23:57.696Z,19.39
2022-09-13T12:24:57.964Z,19.40
2022-09-13T12:25:58.206Z,19.44
2022-09-13T12:26:58.458Z,19.54
2022-09-13T12:27:58.706Z,19.58
2022-09-13T12:28:58.962Z,19.65
2022-09-13T12:29:59.218Z,19.76
2022-09-13T12:30:59.478Z,19.81
2022-09-13T12:31:59.790Z,19.78
2022-09-13T12:33:00.073Z,19.80
2022-09-13T12:34:00.326Z,19.78
2022-09-13T12:35:00.562Z,19.80
2022-09-13T12:36:00.844Z,19.81
2022-09-13T12:37:01.091Z,19.83
2022-09-13T12:38:01.351Z,19.80
2022-09-13T12:39:01.621Z,19.76
2022-09-13T12:40:02.030Z,19.74
2022-09-13T12:41:02.148Z,19.74
2022-09-13T12:42:02.394Z,19.69
2022-09-13T12:43:02.655Z,19.71
2022-09-13T12:44:02.901Z,19.69
2022-09-13T12:45:03.150Z,19.66
2022-09-13T12:46:03.496Z,19.62
2022-09-13T12:47:03.737Z,19.55
2022-09-13T12:48:03.998Z,19.48
2022-09-13T12:49:04.254Z,19.43
2022-09-13T12:50:22.602Z,19.40
2022-09-13T12:51:05.828Z,19.40
2022-09-13T12:52:05.158Z,19.36
2022-09-13T12:53:06.190Z,19.31
2022-09-13T12:54:05.725Z,19.26
2022-09-13T12:55:05.983Z,19.21
2022-09-13T12:56:06.239Z,19.13
2022-09-13T12:57:06.549Z,19.16
2022-09-13T12:58:06.803Z,19.22